Time;durP1;ratioP1;P1;durP2;ratioP2;P2;SDS_P1;SDS_P2;PMS_P1;PMS_P2;Temp;Humidity;BMP_temperature;BMP_pressure;BME280_temperature;BME280_humidity;BME280_pressure;Samples;Min_cycle;Max_cycle;Signal;HPM_P1;HPM_P2
2021/08/18 00:00:47;;;;;;;22.95;13.70;;;12.60;99.90;;;;;;4992452;28;20553;-74
2021/08/18 00:03:14;;;;;;;25.00;14.13;;;12.60;99.90;;;;;;4992373;28;20097;-74
2021/08/18 00:05:40;;;;;;;30.13;15.82;;;12.40;99.90;;;;;;4991046;28;20073;-73
2021/08/18 00:08:07;;;;;;;26.77;14.07;;;12.40;99.90;;;;;;4992364;28;20037;-73
2021/08/18 00:10:34;;;;;;;28.50;15.98;;;12.30;99.90;;;;;;4991048;28;20444;-73
2021/08/18 00:13:00;;;;;;;31.65;16.35;;;12.30;99.90;;;;;;4992134;28;20057;-74
2021/08/18 00:15:26;;;;;;;32.05;16.77;;;12.30;99.90;;;;;;4998154;28;20485;-73
2021/08/18 00:17:54;;;;;;;32.75;16.20;;;12.30;99.90;;;;;;4992157;28;20038;-74
2021/08/18 00:20:20;;;;;;;34.80;17.00;;;12.30;99.90;;;;;;4992325;28;20018;-74
2021/08/18 00:22:45;;;;;;;33.72;16.42;;;12.40;99.90;;;;;;4990766;28;20030;-73
2021/08/18 00:25:12;;;;;;;34.20;17.85;;;12.30;99.90;;;;;;4992792;28;20240;-73
2021/08/18 00:27:37;;;;;;;31.00;17.17;;;12.30;99.90;;;;;;4996329;28;20113;-73
2021/08/18 00:30:05;;;;;;;39.10;18.15;;;12.30;99.90;;;;;;4996216;28;20498;-74
2021/08/18 00:32:30;;;;;;;39.88;19.15;;;12.30;99.90;;;;;;4995962;28;20489;-73
2021/08/18 00:34:55;;;;;;;37.38;17.90;;;12.20;99.90;;;;;;4995931;28;20037;-73
2021/08/18 00:37:21;;;;;;;35.05;17.67;;;12.20;99.90;;;;;;4996046;28;20037;-74
2021/08/18 00:39:47;;;;;;;35.33;18.02;;;12.30;99.90;;;;;;4996025;28;20023;-73
2021/08/18 00:42:15;;;;;;;37.33;18.75;;;12.30;99.90;;;;;;4995844;28;20033;-74
2021/08/18 00:44:40;;;;;;;40.83;19.60;;;12.30;99.90;;;;;;4995771;28;20388;-73
2021/08/18 00:47:06;;;;;;;38.65;18.45;;;12.30;99.90;;;;;;4995782;28;20023;-73
2021/08/18 00:49:32;;;;;;;41.88;19.35;;;12.30;99.90;;;;;;4994539;28;20457;-73
2021/08/18 00:51:59;;;;;;;43.38;19.85;;;12.40;99.90;;;;;;4996231;28;20356;-73
2021/08/18 00:54:25;;;;;;;40.90;18.75;;;12.40;99.90;;;;;;4994208;28;20023;-74
2021/08/18 00:56:52;;;;;;;32.90;16.88;;;12.40;99.90;;;;;;4995696;28;20073;-73
2021/08/18 00:59:18;;;;;;;32.38;16.13;;;12.40;99.90;;;;;;5004796;28;20120;-73
2021/08/18 01:01:44;;;;;;;33.42;16.92;;;12.30;99.90;;;;;;5015094;28;20026;-73
2021/08/18 01:04:11;;;;;;;36.08;17.15;;;12.40;99.90;;;;;;5015091;28;20037;-73
2021/08/18 01:06:41;;;;;;;33.47;16.17;;;12.50;99.90;;;;;;5014881;28;20116;-74
2021/08/18 01:09:09;;;;;;;31.60;16.55;;;12.50;99.90;;;;;;5014999;28;20036;-74
2021/08/18 01:11:36;;;;;;;38.13;17.98;;;12.50;99.90;;;;;;5015029;28;20037;-73
2021/08/18 01:14:02;;;;;;;35.83;17.75;;;12.50;99.90;;;;;;5011402;28;20065;-74
2021/08/18 01:16:31;;;;;;;38.55;17.75;;;12.40;99.90;;;;;;4995090;28;20023;-73
2021/08/18 01:18:58;;;;;;;31.75;16.25;;;12.50;99.90;;;;;;4995324;28;20030;-74
2021/08/18 01:21:23;;;;;;;37.00;16.23;;;12.50;99.90;;;;;;4995023;28;20101;-74
2021/08/18 01:23:49;;;;;;;33.03;16.02;;;12.50;99.90;;;;;;4995308;28;20110;-73
2021/08/18 01:26:14;;;;;;;32.50;17.05;;;12.40;99.90;;;;;;5011502;28;20029;-73
2021/08/18 01:28:40;;;;;;;36.58;17.27;;;12.40;99.90;;;;;;5015084;28;20522;-74
2021/08/18 01:31:05;;;;;;;35.72;17.42;;;12.40;99.90;;;;;;5014830;28;20088;-73
2021/08/18 01:33:31;;;;;;;35.70;16.83;;;12.40;99.90;;;;;;5014665;28;20088;-73
2021/08/18 01:35:56;;;;;;;36.97;16.67;;;12.40;99.90;;;;;;5014887;28;20049;-73
2021/08/18 01:38:22;;;;;;;32.92;16.65;;;12.60;99.90;;;;;;5013374;28;20554;-73
2021/08/18 01:40:51;;;;;;;33.65;16.00;;;12.50;99.90;;;;;;5014608;28;20092;-73
2021/08/18 01:43:21;;;;;;;39.05;17.55;;;12.50;99.90;;;;;;5014538;28;20477;-73
2021/08/18 01:45:48;;;;;;;39.10;17.98;;;12.50;99.90;;;;;;5014216;28;20036;-73
2021/08/18 01:48:19;;;;;;;36.42;17.30;;;12.40;99.90;;;;;;5014419;28;20037;-73
2021/08/18 01:50:46;;;;;;;35.72;16.75;;;12.50;99.90;;;;;;5014182;28;20404;-73
2021/08/18 01:53:24;;;;;;;36.00;16.95;;;12.50;99.90;;;;;;5014161;28;20033;-73
2021/08/18 01:55:50;;;;;;;38.15;17.83;;;12.50;99.90;;;;;;5014039;28;20029;-73
2021/08/18 01:58:15;;;;;;;33.45;17.33;;;12.40;99.90;;;;;;5014271;28;20026;-73
2021/08/18 02:00:41;;;;;;;41.88;17.38;;;12.40;99.90;;;;;;5014050;28;20029;-73
2021/08/18 02:03:07;;;;;;;38.25;17.88;;;12.40;99.90;;;;;;5012648;28;20034;-73
2021/08/18 02:05:32;;;;;;;34.95;17.05;;;12.50;99.90;;;;;;5013841;28;20060;-74
2021/08/18 02:07:58;;;;;;;34.60;16.95;;;12.50;99.90;;;;;;5013996;28;20496;-73
2021/08/18 02:10:23;;;;;;;34.90;17.02;;;12.50;99.90;;;;;;5013927;28;20030;-73
2021/08/18 02:12:50;;;;;;;36.03;17.63;;;12.50;99.90;;;;;;5013868;28;20026;-73
2021/08/18 02:15:19;;;;;;;41.28;19.42;;;12.50;99.90;;;;;;4999954;28;20022;-73
2021/08/18 02:17:45;;;;;;;36.00;17.75;;;12.40;99.90;;;;;;4994116;28;20026;-73
2021/08/18 02:20:14;;;;;;;34.40;16.52;;;12.50;99.90;;;;;;4994164;28;20022;-73
2021/08/18 02:22:41;;;;;;;35.55;17.30;;;12.50;99.90;;;;;;4994137;28;20477;-74
2021/08/18 02:25:07;;;;;;;39.20;17.60;;;12.50;99.90;;;;;;4993988;28;20027;-73
2021/08/18 02:27:33;;;;;;;39.33;18.58;;;12.50;99.90;;;;;;4994017;28;20536;-74
2021/08/18 02:29:58;;;;;;;37.45;17.30;;;12.40;99.90;;;;;;4993974;28;20034;-73
2021/08/18 02:32:24;;;;;;;38.08;18.48;;;12.50;99.90;;;;;;4993669;28;20038;-73
2021/08/18 02:34:50;;;;;;;37.50;18.15;;;12.50;99.90;;;;;;4993851;28;20493;-74
2021/08/18 02:37:15;;;;;;;38.63;17.65;;;12.50;99.90;;;;;;4993876;28;20076;-74
2021/08/18 02:39:41;;;;;;;35.90;19.25;;;12.60;99.90;;;;;;4994261;28;20474;-73
2021/08/18 02:42:06;;;;;;;38.95;18.55;;;12.60;99.90;;;;;;4993634;28;20037;-73
2021/08/18 02:44:32;;;;;;;38.92;18.42;;;12.60;99.90;;;;;;4993557;28;20416;-74
2021/08/18 02:46:57;;;;;;;39.67;19.27;;;12.70;99.90;;;;;;4993590;28;20038;-73
2021/08/18 02:49:23;;;;;;;42.03;19.98;;;12.60;99.90;;;;;;4993227;28;20054;-73
2021/08/18 02:51:48;;;;;;;36.25;18.30;;;12.60;99.90;;;;;;5007515;28;20030;-74
2021/08/18 02:54:14;;;;;;;32.38;18.63;;;12.70;99.90;;;;;;5013084;28;20068;-74
2021/08/18 02:56:40;;;;;;;44.25;19.48;;;12.80;99.90;;;;;;5012993;28;20105;-73
2021/08/18 02:59:05;;;;;;;48.72;23.45;;;12.70;99.90;;;;;;5011805;28;20022;-73
2021/08/18 03:01:31;;;;;;;46.58;22.17;;;12.60;99.90;;;;;;5012830;28;20064;-73
2021/08/18 03:03:56;;;;;;;39.42;19.98;;;12.50;99.90;;;;;;5013039;28;20057;-74
2021/08/18 03:06:22;;;;;;;41.15;19.40;;;12.50;99.90;;;;;;5012689;28;20567;-74
2021/08/18 03:08:47;;;;;;;40.08;18.98;;;12.50;99.90;;;;;;5012999;28;20040;-73
2021/08/18 03:11:13;;;;;;;40.70;19.17;;;12.60;99.90;;;;;;5012741;28;20061;-73
2021/08/18 03:13:38;;;;;;;43.75;20.00;;;12.60;99.90;;;;;;5012276;28;20064;-73
2021/08/18 03:16:04;;;;;;;42.13;19.27;;;12.60;99.90;;;;;;4992715;28;20022;-73
2021/08/18 03:18:31;;;;;;;33.60;18.60;;;12.70;99.90;;;;;;4993176;28;20026;-73
2021/08/18 03:20:57;;;;;;;36.58;18.23;;;12.60;99.90;;;;;;4993056;28;20422;-74
2021/08/18 03:23:23;;;;;;;34.70;17.90;;;12.50;99.90;;;;;;4992984;28;20408;-74
2021/08/18 03:25:49;;;;;;;35.45;18.80;;;12.50;99.90;;;;;;5006852;28;20049;-74
2021/08/18 03:28:15;;;;;;;36.70;18.17;;;12.50;99.90;;;;;;5012402;28;20022;-74
2021/08/18 03:30:41;;;;;;;38.40;18.52;;;12.60;99.90;;;;;;5012473;28;20101;-74
2021/08/18 03:33:07;;;;;;;35.08;17.92;;;12.60;99.90;;;;;;5012355;28;20083;-73
2021/08/18 03:35:32;;;;;;;37.38;18.13;;;12.50;99.90;;;;;;5012198;28;20026;-73
2021/08/18 03:37:58;;;;;;;36.25;18.40;;;12.60;99.90;;;;;;5012511;28;20018;-73
2021/08/18 03:40:24;;;;;;;37.45;17.95;;;12.60;99.90;;;;;;5012395;28;20444;-73
2021/08/18 03:42:49;;;;;;;33.20;17.10;;;12.60;99.90;;;;;;5012290;28;20030;-73
2021/08/18 03:45:15;;;;;;;33.83;17.08;;;12.70;99.90;;;;;;5011980;28;20026;-74
2021/08/18 03:47:40;;;;;;;31.88;16.70;;;12.60;99.90;;;;;;5012245;28;20022;-74
2021/08/18 03:50:07;;;;;;;37.22;18.60;;;12.70;99.90;;;;;;5012052;28;20042;-73
2021/08/18 03:52:36;;;;;;;35.10;17.10;;;12.70;99.90;;;;;;5012101;28;20522;-73
2021/08/18 03:55:02;;;;;;;37.35;18.70;;;12.70;99.90;;;;;;5011947;28;20201;-73
2021/08/18 03:57:27;;;;;;;31.42;16.38;;;12.70;99.90;;;;;;5012160;28;20048;-74
2021/08/18 03:59:53;;;;;;;33.17;16.98;;;12.70;99.90;;;;;;5011383;28;20124;-74
2021/08/18 04:02:18;;;;;;;37.55;17.75;;;12.70;99.90;;;;;;5011922;28;20022;-73
2021/08/18 04:04:44;;;;;;;34.25;17.25;;;12.70;99.90;;;;;;5011793;28;20022;-74
2021/08/18 04:07:09;;;;;;;34.22;17.13;;;12.80;99.90;;;;;;5012092;28;20022;-73
2021/08/18 04:09:35;;;;;;;29.23;14.95;;;12.70;99.90;;;;;;5012016;28;20053;-73
2021/08/18 04:12:00;;;;;;;33.28;16.75;;;12.70;99.90;;;;;;5011904;28;20026;-74
2021/08/18 04:14:25;;;;;;;30.20;15.60;;;12.70;99.90;;;;;;5005012;28;20057;-73
2021/08/18 04:16:51;;;;;;;29.55;15.43;;;12.70;99.90;;;;;;4992375;28;20033;-73
2021/08/18 04:19:16;;;;;;;34.78;16.67;;;12.70;99.90;;;;;;5005651;28;20144;-74
2021/08/18 04:21:42;;;;;;;37.97;18.25;;;12.70;99.90;;;;;;5009056;28;20042;-74
2021/08/18 04:24:08;;;;;;;34.58;17.67;;;12.80;99.90;;;;;;4992222;28;20075;-73
2021/08/18 04:26:33;;;;;;;36.00;17.92;;;12.80;99.90;;;;;;4992007;28;20027;-74
2021/08/18 04:28:59;;;;;;;29.80;15.85;;;12.70;99.90;;;;;;4992069;28;20153;-74
2021/08/18 04:31:24;;;;;;;32.67;16.58;;;12.70;99.90;;;;;;4992112;28;20031;-74
2021/08/18 04:33:50;;;;;;;31.55;15.75;;;12.70;99.90;;;;;;4992181;28;20058;-73
2021/08/18 04:36:16;;;;;;;32.70;15.63;;;12.80;99.90;;;;;;4991827;28;20105;-73
2021/08/18 04:38:42;;;;;;;37.60;16.85;;;12.80;99.90;;;;;;4992177;28;20019;-73
2021/08/18 04:41:07;;;;;;;32.85;16.70;;;12.80;99.90;;;;;;4991928;28;20026;-73
2021/08/18 04:43:33;;;;;;;33.80;16.45;;;12.80;99.90;;;;;;4992156;28;20417;-74
2021/08/18 04:45:58;;;;;;;30.00;15.38;;;12.80;99.90;;;;;;4991879;28;20062;-73
2021/08/18 04:48:24;;;;;;;34.60;17.33;;;12.80;99.90;;;;;;5003223;28;20030;-73
2021/08/18 04:50:49;;;;;;;33.30;16.15;;;12.80;99.90;;;;;;5011471;28;20104;-73
2021/08/18 04:53:15;;;;;;;35.25;16.77;;;12.80;99.90;;;;;;5011504;28;20044;-74
2021/08/18 04:55:42;;;;;;;36.88;17.55;;;12.80;99.90;;;;;;5011235;28;20034;-74
2021/08/18 04:58:08;;;;;;;31.75;16.50;;;12.90;99.90;;;;;;5011447;28;20057;-73
2021/08/18 05:00:34;;;;;;;32.45;16.70;;;12.80;99.90;;;;;;5011481;28;20059;-73
2021/08/18 05:03:00;;;;;;;32.78;17.05;;;12.90;99.90;;;;;;5011431;28;20429;-73
2021/08/18 05:05:25;;;;;;;30.58;16.55;;;12.90;99.90;;;;;;5011204;28;20113;-74
2021/08/18 05:07:51;;;;;;;32.35;15.80;;;13.00;99.90;;;;;;5011522;28;20057;-73
2021/08/18 05:10:18;;;;;;;30.52;16.08;;;13.00;99.90;;;;;;5011730;28;20022;-73
2021/08/18 05:12:43;;;;;;;31.17;15.73;;;13.00;99.90;;;;;;5013869;28;20022;-73
2021/08/18 05:15:09;;;;;;;32.60;16.17;;;13.00;99.90;;;;;;5000812;28;20015;-73
2021/08/18 05:17:35;;;;;;;30.30;15.35;;;13.00;99.90;;;;;;4995350;28;20401;-73
2021/08/18 05:20:00;;;;;;;31.73;16.05;;;13.00;99.90;;;;;;4995322;28;20030;-74
2021/08/18 05:22:26;;;;;;;29.85;15.23;;;13.10;99.90;;;;;;4995210;28;20022;-73
2021/08/18 05:24:52;;;;;;;31.00;15.73;;;13.10;99.90;;;;;;5001142;28;20399;-73
2021/08/18 05:27:17;;;;;;;34.58;15.93;;;13.10;99.90;;;;;;5014730;28;20025;-74
2021/08/18 05:29:43;;;;;;;31.77;15.40;;;13.10;99.90;;;;;;5009021;28;20031;-74
2021/08/18 05:32:09;;;;;;;31.83;15.60;;;13.00;99.90;;;;;;4994043;28;20015;-73
2021/08/18 05:34:34;;;;;;;30.05;15.02;;;13.10;99.90;;;;;;4995297;28;20385;-74
2021/08/18 05:37:00;;;;;;;32.42;16.17;;;13.00;99.90;;;;;;4995197;28;20029;-73
2021/08/18 05:39:25;;;;;;;33.55;16.38;;;13.10;99.90;;;;;;5014164;28;20468;-74
2021/08/18 05:41:51;;;;;;;29.45;15.45;;;13.10;99.90;;;;;;5014365;28;20484;-73
2021/08/18 05:44:16;;;;;;;29.85;15.30;;;13.10;99.90;;;;;;5014368;28;20026;-74
2021/08/18 05:46:42;;;;;;;32.90;16.13;;;13.20;99.90;;;;;;5014641;28;20030;-73
2021/08/18 05:49:07;;;;;;;29.48;15.73;;;13.20;99.90;;;;;;5014401;28;20029;-73
2021/08/18 05:51:33;;;;;;;30.90;15.70;;;13.20;99.90;;;;;;5014306;28;20041;-74
2021/08/18 05:53:58;;;;;;;30.33;14.82;;;13.20;99.90;;;;;;5014139;28;20034;-74
2021/08/18 05:56:24;;;;;;;27.67;13.80;;;13.20;99.90;;;;;;5013954;28;20022;-73
2021/08/18 05:58:49;;;;;;;27.45;14.55;;;13.20;99.90;;;;;;5014172;28;20030;-73
2021/08/18 06:01:15;;;;;;;27.17;13.75;;;13.20;99.90;;;;;;5014075;28;20389;-74
2021/08/18 06:03:40;;;;;;;26.67;14.82;;;13.30;99.90;;;;;;5014084;28;20038;-73
2021/08/18 06:06:06;;;;;;;26.52;13.30;;;13.30;99.90;;;;;;5013896;28;20066;-74
2021/08/18 06:08:32;;;;;;;23.15;13.65;;;13.30;99.90;;;;;;5014018;28;20427;-73
2021/08/18 06:10:57;;;;;;;28.20;13.93;;;13.40;99.90;;;;;;5013739;28;20033;-74
2021/08/18 06:13:23;;;;;;;24.13;13.65;;;13.30;99.90;;;;;;5013917;28;20489;-73
2021/08/18 06:15:49;;;;;;;23.75;13.48;;;13.40;99.90;;;;;;5002116;28;20456;-73
2021/08/18 06:18:15;;;;;;;23.98;13.30;;;13.30;99.90;;;;;;4994216;28;20019;-73
2021/08/18 06:20:40;;;;;;;22.67;13.27;;;13.50;99.90;;;;;;4994302;28;20049;-74
2021/08/18 06:23:06;;;;;;;25.55;14.07;;;13.50;99.90;;;;;;4993311;28;20022;-73
2021/08/18 06:25:31;;;;;;;28.80;14.13;;;13.50;99.90;;;;;;4993843;28;20037;-74
2021/08/18 06:27:57;;;;;;;24.27;13.45;;;13.50;99.90;;;;;;4994078;28;20041;-73
2021/08/18 06:30:23;;;;;;;24.38;13.32;;;13.40;99.90;;;;;;4994098;28;20109;-73
2021/08/18 06:32:48;;;;;;;22.80;13.05;;;13.40;99.90;;;;;;4992613;28;20023;-73
2021/08/18 06:35:14;;;;;;;22.15;12.63;;;13.50;99.90;;;;;;4993780;28;20445;-74
2021/08/18 06:37:40;;;;;;;21.73;12.32;;;13.50;99.90;;;;;;4993890;28;20473;-73
2021/08/18 06:40:07;;;;;;;20.92;12.23;;;13.50;99.90;;;;;;4993797;28;20026;-73
2021/08/18 06:42:33;;;;;;;21.25;12.38;;;13.60;99.90;;;;;;4992473;28;20516;-74
2021/08/18 06:44:58;;;;;;;21.33;11.75;;;13.60;99.90;;;;;;4992405;28;20038;-74
2021/08/18 06:47:24;;;;;;;20.90;11.52;;;13.60;99.90;;;;;;4993750;28;20027;-73
2021/08/18 06:49:49;;;;;;;17.60;10.57;;;13.60;99.90;;;;;;4993641;28;20038;-73
2021/08/18 06:52:15;;;;;;;18.77;11.90;;;13.60;99.90;;;;;;4993475;28;20027;-73
2021/08/18 06:54:40;;;;;;;16.77;10.88;;;13.60;99.90;;;;;;4993151;28;20398;-74
2021/08/18 06:57:06;;;;;;;16.70;10.52;;;13.60;99.90;;;;;;4993538;28;20026;-73
2021/08/18 06:59:31;;;;;;;15.85;10.10;;;13.60;99.90;;;;;;4993558;28;20027;-74
2021/08/18 07:01:57;;;;;;;16.40;10.25;;;13.70;99.90;;;;;;4992082;28;20026;-74
2021/08/18 07:04:22;;;;;;;17.77;10.57;;;13.70;99.90;;;;;;4993281;28;20034;-73
2021/08/18 07:06:48;;;;;;;17.23;10.65;;;13.80;99.90;;;;;;4993356;28;20026;-73
2021/08/18 07:09:14;;;;;;;16.15;10.52;;;13.80;99.90;;;;;;4993266;28;20110;-73
2021/08/18 07:11:39;;;;;;;16.25;10.18;;;13.80;99.90;;;;;;4993230;28;20039;-73
2021/08/18 07:14:05;;;;;;;14.25;10.65;;;13.80;99.90;;;;;;4993081;28;20034;-73
2021/08/18 07:16:33;;;;;;;16.70;10.38;;;13.80;99.90;;;;;;4991683;28;20142;-74
2021/08/18 07:18:59;;;;;;;16.58;10.35;;;13.70;99.90;;;;;;4993226;28;20440;-73
2021/08/18 07:21:26;;;;;;;14.02;9.52;;;13.80;99.90;;;;;;4992883;28;20027;-74
2021/08/18 07:23:52;;;;;;;14.63;9.90;;;13.80;99.90;;;;;;4993002;28;20105;-74
2021/08/18 07:26:21;;;;;;;15.43;9.48;;;13.80;99.90;;;;;;4992806;28;20440;-74
2021/08/18 07:28:47;;;;;;;13.88;9.50;;;13.80;99.90;;;;;;4992987;28;20037;-74
2021/08/18 07:31:12;;;;;;;16.25;9.85;;;13.90;99.90;;;;;;4992880;28;20035;-74
2021/08/18 07:33:38;;;;;;;13.63;9.52;;;13.90;99.90;;;;;;4992839;28;20026;-73
2021/08/18 07:36:04;;;;;;;17.92;9.23;;;14.00;99.90;;;;;;4991714;28;20030;-74
2021/08/18 07:38:29;;;;;;;15.15;10.25;;;13.90;99.90;;;;;;4991467;28;20033;-74
2021/08/18 07:40:55;;;;;;;12.63;8.95;;;14.00;99.90;;;;;;4992751;28;20474;-73
2021/08/18 07:43:21;;;;;;;13.85;9.45;;;13.90;99.90;;;;;;4992761;28;20026;-73
2021/08/18 07:45:46;;;;;;;13.80;10.02;;;13.90;99.90;;;;;;4992867;28;20034;-73
2021/08/18 07:48:12;;;;;;;13.93;9.10;;;14.00;99.90;;;;;;4992788;28;20448;-74
2021/08/18 07:50:37;;;;;;;13.68;9.50;;;14.00;99.90;;;;;;4992440;28;20129;-73
2021/08/18 07:53:03;;;;;;;15.73;10.77;;;14.10;99.90;;;;;;4992326;28;20030;-73
2021/08/18 07:55:28;;;;;;;14.38;10.10;;;14.10;99.90;;;;;;4992261;28;20097;-73
2021/08/18 07:57:54;;;;;;;12.88;9.80;;;14.10;99.90;;;;;;4992578;28;20049;-74
2021/08/18 08:00:19;;;;;;;14.65;9.85;;;14.10;99.90;;;;;;4992448;28;20527;-73
2021/08/18 08:02:46;;;;;;;12.45;9.43;;;14.10;99.90;;;;;;4992437;28;20038;-73
2021/08/18 08:05:13;;;;;;;16.23;10.70;;;14.10;99.90;;;;;;4992256;28;20029;-73
2021/08/18 08:07:38;;;;;;;13.02;9.20;;;14.20;99.90;;;;;;4992380;28;20057;-74
2021/08/18 08:10:08;;;;;;;14.00;9.32;;;14.20;99.90;;;;;;4992489;28;20034;-73
2021/08/18 08:12:34;;;;;;;13.60;9.27;;;14.20;99.90;;;;;;4992228;28;20030;-73
2021/08/18 08:15:00;;;;;;;12.68;9.23;;;14.20;99.90;;;;;;4998479;28;20022;-74
2021/08/18 08:17:25;;;;;;;13.95;9.55;;;14.40;99.90;;;;;;4992482;28;20022;-73
2021/08/18 08:19:51;;;;;;;13.45;8.93;;;14.50;99.90;;;;;;4992791;28;20161;-74
2021/08/18 08:22:17;;;;;;;12.45;9.00;;;14.60;99.90;;;;;;4992061;28;20038;-73
2021/08/18 08:24:43;;;;;;;11.70;8.65;;;14.80;99.90;;;;;;4992335;28;20426;-74
2021/08/18 08:27:08;;;;;;;12.15;8.73;;;14.70;99.90;;;;;;4992186;28;20117;-73
2021/08/18 08:29:34;;;;;;;10.68;8.52;;;14.70;99.90;;;;;;4992149;28;20027;-74
2021/08/18 08:31:59;;;;;;;11.90;8.48;;;14.80;99.90;;;;;;4992104;28;20165;-74
2021/08/18 08:34:25;;;;;;;11.13;8.20;;;14.70;99.90;;;;;;4991869;28;20076;-74
2021/08/18 08:36:50;;;;;;;10.25;7.78;;;14.70;99.90;;;;;;4992072;28;20077;-74
2021/08/18 08:39:16;;;;;;;11.18;7.43;;;14.80;99.90;;;;;;4992133;28;20077;-73
2021/08/18 08:41:43;;;;;;;10.23;7.63;;;14.70;99.90;;;;;;4992233;28;20495;-74
2021/08/18 08:44:18;;;;;;;11.18;7.32;;;14.70;99.90;;;;;;4991991;28;20026;-73
2021/08/18 08:46:52;;;;;;;9.90;7.05;;;14.60;99.90;;;;;;4993279;28;20098;-74
2021/08/18 08:49:19;;;;;;;12.05;7.38;;;14.70;99.90;;;;;;4995750;28;20026;-74
2021/08/18 08:51:47;;;;;;;8.80;6.57;;;14.80;99.90;;;;;;4995707;28;20042;-73
2021/08/18 08:54:13;;;;;;;8.43;6.50;;;14.80;99.90;;;;;;4995826;28;20042;-73
2021/08/18 08:56:39;;;;;;;9.10;7.35;;;14.70;99.90;;;;;;4995619;28;20022;-74
2021/08/18 08:59:05;;;;;;;8.95;7.15;;;14.70;99.90;;;;;;4995851;28;20194;-74
2021/08/18 09:02:09;;;;;;;9.38;7.35;;;14.80;99.90;;;;;;4996157;28;20470;-74
2021/08/18 09:04:37;;;;;;;7.57;6.80;;;14.80;99.90;;;;;;4993207;28;20509;-73
2021/08/18 09:07:09;;;;;;;7.40;6.55;;;14.80;99.90;;;;;;4993240;28;20117;-74
2021/08/18 09:09:36;;;;;;;9.90;7.13;;;14.90;99.90;;;;;;4994560;28;20040;-74
2021/08/18 09:12:13;;;;;;;9.40;7.22;;;14.90;99.90;;;;;;4995597;28;20023;-74
2021/08/18 09:14:40;;;;;;;9.15;7.07;;;15.00;99.90;;;;;;4995161;28;20027;-73
2021/08/18 09:17:28;;;;;;;8.95;6.70;;;15.00;99.90;;;;;;4996695;28;20032;-74
2021/08/18 09:20:01;;;;;;;8.55;6.50;;;15.00;99.90;;;;;;4997644;28;20018;-74
2021/08/18 09:22:27;;;;;;;8.05;6.95;;;15.00;99.90;;;;;;4997217;28;20029;-73
2021/08/18 09:25:16;;;;;;;8.38;6.10;;;14.90;99.90;;;;;;4983615;28;20030;-74
2021/08/18 09:27:43;;;;;;;8.73;6.07;;;15.00;99.90;;;;;;4995391;28;20022;-74
2021/08/18 09:30:26;;;;;;;7.40;5.50;;;15.10;99.90;;;;;;4993984;28;20022;-74
2021/08/18 09:32:52;;;;;;;7.50;5.45;;;15.20;99.90;;;;;;4995115;28;20029;-74
2021/08/18 09:35:20;;;;;;;6.38;5.18;;;15.30;99.90;;;;;;4994864;28;20060;-73
2021/08/18 09:38:00;;;;;;;6.32;4.95;;;15.30;99.90;;;;;;4995065;28;20026;-73
2021/08/18 09:40:27;;;;;;;8.13;5.68;;;15.50;99.90;;;;;;4994989;28;20026;-73
2021/08/18 09:42:54;;;;;;;6.97;4.63;;;15.50;99.90;;;;;;4994898;28;20370;-73
2021/08/18 09:45:27;;;;;;;5.30;4.40;;;15.50;99.90;;;;;;4994608;28;20076;-74
2021/08/18 09:47:59;;;;;;;5.82;4.70;;;15.70;99.90;;;;;;4994857;28;20081;-74
2021/08/18 09:50:28;;;;;;;5.43;4.35;;;15.80;99.90;;;;;;4994733;28;20567;-73
2021/08/18 09:53:03;;;;;;;4.82;4.10;;;15.70;99.90;;;;;;4994674;28;20045;-74
2021/08/18 09:55:29;;;;;;;7.88;4.43;;;15.60;99.90;;;;;;4994617;28;20500;-73
2021/08/18 09:57:54;;;;;;;6.70;4.45;;;15.40;99.90;;;;;;4993712;28;20038;-74
2021/08/18 10:00:20;;;;;;;4.90;4.10;;;15.40;99.90;;;;;;4994392;28;20033;-74
2021/08/18 10:02:46;;;;;;;11.00;4.60;;;15.30;99.90;;;;;;4994571;28;20022;-73
2021/08/18 10:05:12;;;;;;;6.50;5.20;;;15.20;99.90;;;;;;4994242;28;20061;-74
2021/08/18 10:07:38;;;;;;;7.15;5.57;;;15.30;99.90;;;;;;4994505;28;20547;-74
2021/08/18 10:10:04;;;;;;;6.70;5.50;;;15.20;99.90;;;;;;4994429;28;20030;-74
2021/08/18 10:12:31;;;;;;;7.22;5.32;;;15.20;99.90;;;;;;4994262;28;20481;-74
2021/08/18 10:15:00;;;;;;;7.22;5.90;;;15.20;99.90;;;;;;4993978;28;20117;-73
2021/08/18 10:17:26;;;;;;;8.65;6.05;;;15.30;99.90;;;;;;4994246;28;20015;-74
2021/08/18 10:19:52;;;;;;;7.50;6.60;;;15.50;99.90;;;;;;4994215;28;20026;-74
2021/08/18 10:22:44;;;;;;;8.15;6.97;;;15.50;99.90;;;;;;4994211;28;20018;-73
2021/08/18 10:25:31;;;;;;;8.25;7.13;;;15.60;99.90;;;;;;4991685;28;20092;-73
2021/08/18 10:27:56;;;;;;;10.15;7.97;;;15.60;99.90;;;;;;5012349;28;20084;-74
2021/08/18 10:30:23;;;;;;;8.65;7.75;;;15.60;99.90;;;;;;5013703;28;20407;-73
2021/08/18 10:32:50;;;;;;;10.52;7.97;;;15.50;99.90;;;;;;4995931;28;20556;-73
2021/08/18 10:35:34;;;;;;;7.18;5.55;;;15.50;99.90;;;;;;4993778;28;20026;-74
2021/08/18 10:38:38;;;;;;;8.23;6.30;;;15.20;99.90;;;;;;4994012;28;20030;-74
2021/08/18 10:41:03;;;;;;;8.55;6.55;;;15.20;99.90;;;;;;4991399;28;20031;-73
2021/08/18 10:43:56;;;;;;;9.27;6.85;;;15.30;99.90;;;;;;4991619;28;20045;-74
2021/08/18 10:46:22;;;;;;;11.02;7.68;;;15.40;99.90;;;;;;4992993;28;20034;-73
2021/08/18 10:49:06;;;;;;;9.65;7.00;;;15.40;99.90;;;;;;4996192;28;20027;-73
2021/08/18 10:51:40;;;;;;;7.38;6.43;;;15.30;99.90;;;;;;5011887;28;20377;-73
2021/08/18 10:54:28;;;;;;;8.55;7.07;;;15.50;99.90;;;;;;5013158;28;20456;-73
2021/08/18 10:56:58;;;;;;;9.02;7.05;;;15.50;99.90;;;;;;5013250;28;20022;-74
2021/08/18 10:59:36;;;;;;;8.32;7.30;;;15.60;99.90;;;;;;5013081;28;20018;-74
2021/08/18 11:02:07;;;;;;;8.38;6.35;;;15.80;99.90;;;;;;5012918;28;20057;-74
2021/08/18 11:04:47;;;;;;;7.80;6.32;;;16.00;99.90;;;;;;5012806;28;20037;-74
2021/08/18 11:07:14;;;;;;;7.85;6.60;;;16.20;99.90;;;;;;5012953;28;20025;-74
2021/08/18 11:09:48;;;;;;;7.57;5.63;;;16.70;99.90;;;;;;5011472;28;20473;-74
2021/08/18 11:12:38;;;;;;;7.10;6.38;;;16.80;99.90;;;;;;5012831;28;20022;-74
2021/08/18 11:15:19;;;;;;;6.47;5.85;;;17.10;99.90;;;;;;5000376;28;20425;-74
2021/08/18 11:17:45;;;;;;;8.93;5.22;;;17.20;99.90;;;;;;4991812;28;20488;-74
2021/08/18 11:20:22;;;;;;;6.50;4.57;;;17.10;99.90;;;;;;4993178;28;20045;-73
2021/08/18 11:22:58;;;;;;;6.05;5.07;;;17.00;99.90;;;;;;4992887;28;20030;-74
2021/08/18 11:25:24;;;;;;;6.22;5.63;;;16.70;99.90;;;;;;4992892;28;20030;-74
2021/08/18 11:27:52;;;;;;;6.53;5.45;;;16.60;99.90;;;;;;4992877;28;20058;-73
2021/08/18 11:30:32;;;;;;;4.80;4.30;;;16.60;99.90;;;;;;4992924;28;20029;-74
2021/08/18 11:33:18;;;;;;;4.00;3.60;;;16.90;99.90;;;;;;4992008;28;20026;-74
2021/08/18 11:35:43;;;;;;;4.45;3.70;;;16.80;99.90;;;;;;4991434;28;20030;-74
2021/08/18 11:38:10;;;;;;;3.40;3.10;;;16.90;99.90;;;;;;4992759;28;20385;-74
2021/08/18 11:40:36;;;;;;;3.30;3.00;;;16.90;99.90;;;;;;4992800;28;20097;-74
2021/08/18 11:43:03;;;;;;;3.55;2.72;;;17.20;99.90;;;;;;4992722;28;20113;-74
2021/08/18 11:45:29;;;;;;;3.17;2.88;;;17.20;99.90;;;;;;4992498;28;20034;-74
2021/08/18 11:48:09;;;;;;;2.50;2.30;;;17.50;99.90;;;;;;4992752;28;20033;-73
2021/08/18 11:50:36;;;;;;;2.60;2.40;;;18.00;99.90;;;;;;4992355;28;20115;-73
2021/08/18 11:53:07;;;;;;;3.13;2.92;;;18.10;99.90;;;;;;4991191;28;20029;-74
2021/08/18 11:55:33;;;;;;;3.58;3.28;;;18.00;99.90;;;;;;4992379;28;20187;-74
2021/08/18 11:58:05;;;;;;;2.63;2.42;;;17.90;99.90;;;;;;4992565;28;20073;-74
2021/08/18 12:00:32;;;;;;;2.65;2.45;;;17.80;99.90;;;;;;4991251;28;20026;-74
2021/08/18 12:02:58;;;;;;;2.83;2.40;;;17.90;99.90;;;;;;4992348;28;20026;-74
2021/08/18 12:05:39;;;;;;;3.83;2.80;;;18.00;99.90;;;;;;4992242;28;20037;-74
2021/08/18 12:08:14;;;;;;;3.38;2.80;;;18.20;99.90;;;;;;4992505;28;20050;-74
2021/08/18 12:10:42;;;;;;;3.35;3.05;;;18.20;99.90;;;;;;4992534;28;20022;-74
2021/08/18 12:13:16;;;;;;;2.80;2.60;;;18.00;99.90;;;;;;4990908;28;20077;-74
2021/08/18 12:15:49;;;;;;;3.00;2.70;;;17.90;99.90;;;;;;4991950;28;20034;-74
2021/08/18 12:18:34;;;;;;;4.32;3.40;;;17.70;99.90;;;;;;4992363;28;20014;-74
2021/08/18 12:21:17;;;;;;;4.85;3.55;;;17.70;99.90;;;;;;4993424;28;20029;-74
2021/08/18 12:23:45;;;;;;;3.78;3.10;;;17.70;99.90;;;;;;4999195;28;20517;-74
2021/08/18 12:26:30;;;;;;;2.80;2.60;;;17.60;99.90;;;;;;4998546;28;20026;-74
2021/08/18 12:28:58;;;;;;;3.50;2.90;;;17.40;99.90;;;;;;4998875;28;20050;-74
2021/08/18 12:31:25;;;;;;;4.50;2.85;;;17.20;99.90;;;;;;4998565;28;20041;-74
2021/08/18 12:34:09;;;;;;;3.00;2.70;;;17.30;99.90;;;;;;4999074;28;20052;-74
2021/08/18 12:36:36;;;;;;;3.50;3.10;;;17.40;99.90;;;;;;4998439;28;20080;-74